createdAt,value
2022-07-26T00:00:46.860Z,27.43
2022-07-26T00:01:46.760Z,27.53
2022-07-26T00:02:48.336Z,27.48
2022-07-26T00:03:46.658Z,27.43
2022-07-26T00:04:46.766Z,27.42
2022-07-26T00:06:46.816Z,27.33
2022-07-26T00:07:46.989Z,27.28
2022-07-26T00:08:46.754Z,27.28
2022-07-26T00:09:48.504Z,27.24
2022-07-26T00:10:46.812Z,27.13
2022-07-26T00:11:46.835Z,27.11
2022-07-26T00:12:46.830Z,27.05
2022-07-26T00:13:46.865Z,27.09
2022-07-26T00:14:47.196Z,27.03
2022-07-26T00:15:46.930Z,26.96
2022-07-26T00:16:47.024Z,26.87
2022-07-26T00:17:46.995Z,26.81
2022-07-26T00:18:47.026Z,26.86
2022-07-26T00:19:47.058Z,26.79
2022-07-26T00:20:47.090Z,26.84
2022-07-26T00:21:47.424Z,26.69
2022-07-26T00:22:47.181Z,26.78
2022-07-26T00:23:47.208Z,26.72
2022-07-26T00:24:47.228Z,26.78
2022-07-26T00:25:47.255Z,26.84
2022-07-26T00:26:47.288Z,26.73
2022-07-26T00:27:47.317Z,26.88
2022-07-26T00:28:47.598Z,26.86
2022-07-26T00:29:47.389Z,26.88
2022-07-26T00:30:47.414Z,26.87
2022-07-26T00:31:47.478Z,26.98
2022-07-26T00:32:47.482Z,26.91
2022-07-26T00:33:47.668Z,26.98
2022-07-26T00:34:47.801Z,27.02
2022-07-26T00:35:47.576Z,27.03
2022-07-26T00:36:47.608Z,27.01
2022-07-26T00:37:47.643Z,27.05
2022-07-26T00:38:47.672Z,27.01
2022-07-26T00:39:47.718Z,27.11
2022-07-26T00:40:48.039Z,27.05
2022-07-26T00:41:47.778Z,27.18
2022-07-26T00:43:47.836Z,27.18
2022-07-26T00:44:47.868Z,27.15
2022-07-26T00:45:47.994Z,27.24
2022-07-26T00:46:48.184Z,27.16
2022-07-26T00:47:47.965Z,27.21
2022-07-26T00:49:48.033Z,27.25
2022-07-26T00:50:48.069Z,27.21
2022-07-26T00:51:48.094Z,27.33
2022-07-26T00:52:48.126Z,27.38
2022-07-26T00:53:48.409Z,27.28
2022-07-26T00:54:48.196Z,27.27
2022-07-26T00:55:48.277Z,27.40
2022-07-26T00:56:52.035Z,27.35
2022-07-26T00:58:48.334Z,27.39
2022-07-26T00:59:48.359Z,27.42
2022-07-26T01:01:48.814Z,27.42
2022-07-26T01:02:48.498Z,27.38
2022-07-26T01:03:48.486Z,27.39
2022-07-26T01:04:48.512Z,27.38
2022-07-26T01:05:48.622Z,27.46
2022-07-26T01:06:48.574Z,27.45
2022-07-26T01:07:48.611Z,27.40
2022-07-26T01:08:48.895Z,27.46
2022-07-26T01:09:48.679Z,27.38
2022-07-26T01:10:48.705Z,27.48
2022-07-26T01:13:48.859Z,27.48
2022-07-26T01:14:48.833Z,27.43
2022-07-26T01:15:49.188Z,27.50
2022-07-26T01:17:48.930Z,27.46
2022-07-26T01:18:48.962Z,27.45
2022-07-26T01:19:49.014Z,27.46
2022-07-26T01:21:49.065Z,27.46
2022-07-26T01:22:49.353Z,27.46
2022-07-26T01:23:49.125Z,27.46
2022-07-26T01:24:49.164Z,27.46
2022-07-26T01:25:49.194Z,27.48
2022-07-26T01:26:49.222Z,27.46
2022-07-26T01:27:49.262Z,27.49
2022-07-26T01:28:49.287Z,27.49
2022-07-26T01:29:49.619Z,27.48
2022-07-26T01:30:49.473Z,27.48
2022-07-26T01:31:49.456Z,27.46
2022-07-26T01:32:49.414Z,27.48
2022-07-26T01:33:49.464Z,27.39
2022-07-26T01:34:49.489Z,27.43
2022-07-26T01:35:49.516Z,27.45
2022-07-26T01:36:49.799Z,27.45
2022-07-26T01:37:49.714Z,27.43
2022-07-26T01:38:49.614Z,27.45
2022-07-26T01:39:49.650Z,27.46
2022-07-26T01:40:49.683Z,27.46
2022-07-26T01:41:49.710Z,27.39
2022-07-26T01:42:49.744Z,27.40
2022-07-26T01:43:50.036Z,27.39
2022-07-26T01:44:49.804Z,27.38
2022-07-26T01:45:49.948Z,27.42
2022-07-26T01:46:49.869Z,27.43
2022-07-26T01:47:49.906Z,27.43
2022-07-26T01:48:49.982Z,27.43
2022-07-26T01:49:49.965Z,27.46
2022-07-26T01:50:50.301Z,27.40
2022-07-26T01:51:50.036Z,27.38
2022-07-26T01:53:50.098Z,27.35
2022-07-26T01:54:50.130Z,27.31
2022-07-26T01:55:50.160Z,27.24
2022-07-26T01:56:50.196Z,27.13
2022-07-26T01:57:50.475Z,27.18
2022-07-26T01:58:50.361Z,27.16
2022-07-26T01:59:50.287Z,27.13
2022-07-26T02:00:50.329Z,27.15
2022-07-26T02:01:50.516Z,27.11
2022-07-26T02:02:50.497Z,27.03
2022-07-26T02:03:50.422Z,27.06
2022-07-26T02:04:50.709Z,26.93
2022-07-26T02:05:50.517Z,27.05
2022-07-26T02:06:50.515Z,26.96
2022-07-26T02:07:50.552Z,27.01
2022-07-26T02:09:50.625Z,26.93
2022-07-26T02:10:50.662Z,26.87
2022-07-26T02:11:50.974Z,26.90
2022-07-26T02:12:50.726Z,26.91
2022-07-26T02:13:53.189Z,26.88
2022-07-26T02:14:50.776Z,26.84
2022-07-26T02:15:50.874Z,26.87
2022-07-26T02:16:50.841Z,26.86
2022-07-26T02:17:50.877Z,26.81
2022-07-26T02:19:51.183Z,26.78
2022-07-26T02:20:50.967Z,26.71
2022-07-26T02:21:51.002Z,26.81
2022-07-26T02:22:51.039Z,26.75
2022-07-26T02:23:51.093Z,26.83
2022-07-26T02:24:51.098Z,26.72
2022-07-26T02:25:51.127Z,26.79
2022-07-26T02:26:51.461Z,26.78
2022-07-26T02:28:51.222Z,26.71
2022-07-26T02:29:51.267Z,26.75
2022-07-26T02:30:51.405Z,26.61
2022-07-26T02:31:51.338Z,26.69
2022-07-26T02:33:51.388Z,26.64
2022-07-26T02:34:51.717Z,26.68
2022-07-26T02:35:51.446Z,26.60
2022-07-26T02:36:51.487Z,26.56
2022-07-26T02:37:51.513Z,26.44
2022-07-26T02:38:51.552Z,26.53
2022-07-26T02:39:51.594Z,26.51
2022-07-26T02:40:51.607Z,26.57
2022-07-26T02:41:51.999Z,26.60
2022-07-26T02:42:51.672Z,26.54
2022-07-26T02:43:51.703Z,26.54
2022-07-26T02:44:51.736Z,26.64
2022-07-26T02:46:01.881Z,26.57
2022-07-26T02:46:51.895Z,26.65
2022-07-26T02:47:51.831Z,26.72
2022-07-26T02:48:52.254Z,26.68
2022-07-26T02:49:51.895Z,26.72
2022-07-26T02:50:52.073Z,26.73
2022-07-26T02:51:52.009Z,26.73
2022-07-26T02:52:51.990Z,26.73
2022-07-26T02:54:52.052Z,26.81
2022-07-26T02:55:52.349Z,26.76
2022-07-26T02:56:52.119Z,26.83
2022-07-26T02:57:52.150Z,26.79
2022-07-26T02:58:52.184Z,26.78
2022-07-26T02:59:52.212Z,26.83
2022-07-26T03:00:52.256Z,26.71
2022-07-26T03:01:52.316Z,26.71
2022-07-26T03:02:52.717Z,26.68
2022-07-26T03:03:52.341Z,26.61
2022-07-26T03:04:52.372Z,26.56
2022-07-26T03:05:52.401Z,26.61
2022-07-26T03:07:52.470Z,26.60
2022-07-26T03:08:52.500Z,26.61
2022-07-26T03:09:52.781Z,26.59
2022-07-26T03:10:52.566Z,26.59
2022-07-26T03:11:52.601Z,26.65
2022-07-26T03:12:52.626Z,26.59
2022-07-26T03:13:52.658Z,26.61
2022-07-26T03:14:52.690Z,26.46
2022-07-26T03:15:52.800Z,26.47
2022-07-26T03:16:53.058Z,26.51
2022-07-26T03:17:52.785Z,26.57
2022-07-26T03:18:52.818Z,26.60
2022-07-26T03:19:52.848Z,26.56
2022-07-26T03:20:52.929Z,26.56
2022-07-26T03:21:52.912Z,26.47
2022-07-26T03:22:52.945Z,26.47
2022-07-26T03:23:53.283Z,26.56
2022-07-26T03:24:53.010Z,26.57
2022-07-26T03:25:53.044Z,26.61
2022-07-26T03:26:53.096Z,26.60
2022-07-26T03:27:53.105Z,26.54
2022-07-26T03:28:53.142Z,26.65
2022-07-26T03:29:53.168Z,26.64
2022-07-26T03:30:53.500Z,26.66
2022-07-26T03:31:53.239Z,26.60
2022-07-26T03:32:53.268Z,26.73
2022-07-26T03:34:53.328Z,26.73
2022-07-26T03:35:53.360Z,26.73
2022-07-26T03:36:53.690Z,26.79
2022-07-26T03:37:53.424Z,26.76
2022-07-26T03:38:53.452Z,26.78
2022-07-26T03:39:53.488Z,26.84
2022-07-26T03:40:53.524Z,26.83
2022-07-26T03:41:53.548Z,26.84
2022-07-26T03:42:53.850Z,26.90
2022-07-26T03:43:53.620Z,26.83
2022-07-26T03:44:53.704Z,26.87
2022-07-26T03:45:54.217Z,26.90
2022-07-26T03:46:53.708Z,26.87
2022-07-26T03:47:53.744Z,26.87
2022-07-26T03:48:54.149Z,26.90
2022-07-26T03:49:53.803Z,26.90
2022-07-26T03:51:53.868Z,26.96
2022-07-26T03:52:53.896Z,26.97
2022-07-26T03:53:53.929Z,27.03
2022-07-26T03:54:53.963Z,27.01
2022-07-26T03:55:54.299Z,26.96
2022-07-26T03:56:54.025Z,26.94
2022-07-26T03:57:54.057Z,26.98
2022-07-26T03:58:54.090Z,27.01
2022-07-26T03:59:54.121Z,26.98
2022-07-26T04:00:54.157Z,26.96
2022-07-26T04:01:54.248Z,26.93
2022-07-26T04:02:54.562Z,26.87
2022-07-26T04:03:54.255Z,26.91
2022-07-26T04:04:54.280Z,26.88
2022-07-26T04:05:54.311Z,26.94
2022-07-26T04:06:54.344Z,26.87
2022-07-26T04:07:54.378Z,26.91
2022-07-26T04:08:54.405Z,26.88
2022-07-26T04:09:54.691Z,26.96
2022-07-26T04:10:54.578Z,26.83
2022-07-26T04:11:54.520Z,26.88
2022-07-26T04:12:54.537Z,26.90
2022-07-26T04:13:54.567Z,26.91
2022-07-26T04:14:54.598Z,26.91
2022-07-26T04:15:54.632Z,26.88
2022-07-26T04:16:54.982Z,26.91
2022-07-26T04:17:54.894Z,26.87
2022-07-26T04:18:54.730Z,26.90
2022-07-26T04:19:54.757Z,26.90
2022-07-26T04:20:54.788Z,26.86
2022-07-26T04:21:54.820Z,26.94
2022-07-26T04:22:54.853Z,26.96
2022-07-26T04:23:55.138Z,26.90
2022-07-26T04:24:54.918Z,26.91
2022-07-26T04:25:54.947Z,26.93
2022-07-26T04:26:54.977Z,26.91
2022-07-26T04:27:55.012Z,26.86
2022-07-26T04:28:55.046Z,26.90
2022-07-26T04:29:55.095Z,26.84
2022-07-26T04:30:55.395Z,26.87
2022-07-26T04:31:55.143Z,26.94
2022-07-26T04:32:55.169Z,26.88
2022-07-26T04:33:55.203Z,26.97
2022-07-26T04:34:55.233Z,26.94
2022-07-26T04:36:55.302Z,27.05
2022-07-26T04:37:55.628Z,26.96
2022-07-26T04:38:55.370Z,26.96
2022-07-26T04:39:55.392Z,27.02
2022-07-26T04:40:55.426Z,26.96
2022-07-26T04:41:55.462Z,26.97
2022-07-26T04:42:55.490Z,27.01
2022-07-26T04:43:55.522Z,26.97
2022-07-26T04:44:55.805Z,27.05
2022-07-26T04:45:55.644Z,26.98
2022-07-26T04:46:55.615Z,27.06
2022-07-26T04:47:55.670Z,27.15
2022-07-26T04:49:55.708Z,27.01
2022-07-26T04:50:55.741Z,27.03
2022-07-26T04:51:59.281Z,27.06
2022-07-26T04:52:55.809Z,27.03
2022-07-26T04:53:55.844Z,27.06
2022-07-26T04:54:55.872Z,27.06
2022-07-26T04:55:55.915Z,27.01
2022-07-26T04:56:55.933Z,27.06
2022-07-26T04:57:55.967Z,27.03
2022-07-26T05:00:16.604Z,27.05
2022-07-26T05:01:09.525Z,27.08
2022-07-26T05:01:56.249Z,27.11
2022-07-26T05:02:56.290Z,27.03
2022-07-26T05:03:56.178Z,27.03
2022-07-26T05:04:56.209Z,26.97
2022-07-26T05:05:56.320Z,27.02
2022-07-26T05:06:56.570Z,27.05
2022-07-26T05:07:56.362Z,26.98
2022-07-26T05:08:56.322Z,27.06
2022-07-26T05:09:56.401Z,27.02
2022-07-26T05:10:56.421Z,26.98
2022-07-26T05:11:56.532Z,27.03
2022-07-26T05:12:56.451Z,26.98
2022-07-26T05:13:56.902Z,26.97
2022-07-26T05:14:56.589Z,26.90
2022-07-26T05:15:56.686Z,26.94
2022-07-26T05:16:56.681Z,26.93
2022-07-26T05:17:56.603Z,26.87
2022-07-26T05:18:56.696Z,26.90
2022-07-26T05:19:59.993Z,26.88
2022-07-26T05:20:57.051Z,26.88
2022-07-26T05:21:56.734Z,26.86
2022-07-26T05:22:56.831Z,26.93
2022-07-26T05:23:57.440Z,26.93
2022-07-26T05:25:00.108Z,26.91
2022-07-26T05:26:02.134Z,26.87
2022-07-26T05:27:01.283Z,26.93
2022-07-26T05:28:57.460Z,26.83
2022-07-26T05:29:57.015Z,26.91
2022-07-26T05:30:57.184Z,26.87
2022-07-26T05:31:57.070Z,26.83
2022-07-26T05:33:57.515Z,26.86
2022-07-26T05:34:57.154Z,26.91
2022-07-26T05:35:57.234Z,26.88
2022-07-26T05:36:57.227Z,26.97
2022-07-26T05:37:57.244Z,26.88
2022-07-26T05:38:57.338Z,26.90
2022-07-26T05:39:57.689Z,26.91
2022-07-26T05:40:57.366Z,26.86
2022-07-26T05:41:57.386Z,26.94
2022-07-26T05:42:57.406Z,26.87
2022-07-26T05:43:57.527Z,26.87
2022-07-26T05:44:57.465Z,26.86
2022-07-26T05:45:57.860Z,26.86
2022-07-26T05:46:57.608Z,26.87
2022-07-26T05:47:57.576Z,26.84
2022-07-26T05:48:57.630Z,26.81
2022-07-26T05:49:57.676Z,26.84
2022-07-26T05:50:57.661Z,26.75
2022-07-26T05:52:01.212Z,26.79
2022-07-26T05:52:57.727Z,26.71
2022-07-26T05:53:57.773Z,26.71
2022-07-26T05:54:57.786Z,26.61
2022-07-26T05:55:57.856Z,26.60
2022-07-26T05:56:57.857Z,26.61
2022-07-26T05:57:57.883Z,26.68
2022-07-26T05:58:58.161Z,26.60
2022-07-26T05:59:57.947Z,26.66
2022-07-26T06:02:58.042Z,26.53
2022-07-26T06:04:58.468Z,26.49
2022-07-26T06:05:58.138Z,26.53
2022-07-26T06:06:58.167Z,26.51
2022-07-26T06:07:58.204Z,26.56
2022-07-26T06:08:58.233Z,26.56
2022-07-26T06:09:58.272Z,26.54
2022-07-26T06:10:58.296Z,26.59
2022-07-26T06:11:58.669Z,26.53
2022-07-26T06:12:58.421Z,26.65
2022-07-26T06:13:58.390Z,26.65
2022-07-26T06:15:58.552Z,26.64
2022-07-26T06:16:58.643Z,26.59
2022-07-26T06:17:58.523Z,26.54
2022-07-26T06:18:58.806Z,26.54
2022-07-26T06:19:58.586Z,26.50
2022-07-26T06:21:02.459Z,26.56
2022-07-26T06:21:58.701Z,26.57
2022-07-26T06:22:58.678Z,26.51
2022-07-26T06:23:58.712Z,26.60
2022-07-26T06:24:58.748Z,26.49
2022-07-26T06:27:05.340Z,26.56
2022-07-26T06:27:58.839Z,26.56
2022-07-26T06:28:58.875Z,26.57
2022-07-26T06:29:58.968Z,26.53
2022-07-26T06:30:59.096Z,26.54
2022-07-26T06:31:59.150Z,26.54
2022-07-26T06:32:59.050Z,26.59
2022-07-26T06:33:59.284Z,26.60
2022-07-26T06:34:59.062Z,26.54
2022-07-26T06:35:59.093Z,26.59
2022-07-26T06:36:59.128Z,26.61
2022-07-26T06:37:59.159Z,26.60
2022-07-26T06:38:59.190Z,26.59
2022-07-26T06:39:59.223Z,26.57
2022-07-26T06:40:59.602Z,26.56
2022-07-26T06:41:59.417Z,26.57
2022-07-26T06:43:04.204Z,26.54
2022-07-26T06:43:59.349Z,26.51
2022-07-26T06:44:59.440Z,26.57
2022-07-26T06:45:59.591Z,26.59
2022-07-26T06:46:59.450Z,26.53
2022-07-26T06:47:59.727Z,26.46
2022-07-26T06:48:59.581Z,26.64
2022-07-26T06:49:59.550Z,26.54
2022-07-26T06:50:59.623Z,26.57
2022-07-26T06:51:59.608Z,26.53
2022-07-26T06:52:59.639Z,26.57
2022-07-26T06:53:59.689Z,26.51
2022-07-26T06:54:59.707Z,26.49
2022-07-26T06:55:59.796Z,26.57
2022-07-26T06:56:59.771Z,26.56
2022-07-26T06:57:59.805Z,26.54
2022-07-26T06:58:59.907Z,26.47
2022-07-26T06:59:59.861Z,26.53
2022-07-26T07:01:00.367Z,26.57
2022-07-26T07:02:00.632Z,26.50
2022-07-26T07:02:59.965Z,26.53
2022-07-26T07:03:59.992Z,26.50
2022-07-26T07:05:00.211Z,26.54
2022-07-26T07:06:00.059Z,26.51
2022-07-26T07:07:00.489Z,26.49
2022-07-26T07:08:00.118Z,26.50
2022-07-26T07:09:00.152Z,26.50
2022-07-26T07:10:00.198Z,26.53
2022-07-26T07:11:00.216Z,26.57
2022-07-26T07:12:03.441Z,26.57
2022-07-26T07:13:00.289Z,26.49
2022-07-26T07:14:00.308Z,26.47
2022-07-26T07:15:00.350Z,26.61
2022-07-26T07:16:00.503Z,26.60
2022-07-26T07:17:00.407Z,26.64
2022-07-26T07:19:00.770Z,26.61
2022-07-26T07:20:00.508Z,26.59
2022-07-26T07:21:00.535Z,26.60
2022-07-26T07:22:00.619Z,26.65
2022-07-26T07:23:00.954Z,26.60
2022-07-26T07:24:01.950Z,26.59
2022-07-26T07:26:01.418Z,26.49
2022-07-26T07:27:01.128Z,26.54
2022-07-26T07:28:00.761Z,26.64
2022-07-26T07:29:00.789Z,26.53
2022-07-26T07:31:00.853Z,26.50
2022-07-26T07:32:00.922Z,26.46
2022-07-26T07:33:01.220Z,26.50
2022-07-26T07:34:00.954Z,26.42
2022-07-26T07:35:00.984Z,26.42
2022-07-26T07:36:01.064Z,26.44
2022-07-26T07:37:01.062Z,26.41
2022-07-26T07:38:01.104Z,26.38
2022-07-26T07:39:06.168Z,26.38
2022-07-26T07:40:01.408Z,26.41
2022-07-26T07:41:03.798Z,26.46
2022-07-26T07:43:01.247Z,26.32
2022-07-26T07:44:01.346Z,26.35
2022-07-26T07:45:01.321Z,26.35
2022-07-26T07:46:01.679Z,26.36
2022-07-26T07:47:01.952Z,26.35
2022-07-26T07:48:01.398Z,26.31
2022-07-26T07:49:01.517Z,26.41
2022-07-26T07:50:01.660Z,26.35
2022-07-26T07:51:01.495Z,26.34
2022-07-26T07:52:01.599Z,26.36
2022-07-26T07:53:02.133Z,26.32
2022-07-26T07:54:05.403Z,26.39
2022-07-26T07:55:21.897Z,26.39
2022-07-26T07:56:01.664Z,26.31
2022-07-26T07:58:01.790Z,26.38
2022-07-26T07:59:01.758Z,26.31
2022-07-26T08:00:01.788Z,26.44
2022-07-26T08:02:03.697Z,26.29
2022-07-26T08:03:01.878Z,26.38
2022-07-26T08:04:01.985Z,26.42
2022-07-26T08:05:11.461Z,26.44
2022-07-26T08:06:02.062Z,26.47
2022-07-26T08:07:02.006Z,26.50
2022-07-26T08:08:03.738Z,26.49
2022-07-26T08:09:03.899Z,26.47
2022-07-26T08:10:02.446Z,26.49
2022-07-26T08:11:02.500Z,26.54
2022-07-26T08:12:02.697Z,26.57
2022-07-26T08:13:02.249Z,26.60
2022-07-26T08:14:02.237Z,26.56
2022-07-26T08:15:02.339Z,26.65
2022-07-26T08:16:03.074Z,26.53
2022-07-26T08:17:03.689Z,26.51
2022-07-26T08:18:02.358Z,26.54
2022-07-26T08:19:02.397Z,26.51
2022-07-26T08:20:02.428Z,26.50
2022-07-26T08:21:02.458Z,26.64
2022-07-26T08:22:02.483Z,26.60
2022-07-26T08:23:02.773Z,26.56
2022-07-26T08:24:02.569Z,26.61
2022-07-26T08:25:02.588Z,26.61
2022-07-26T08:26:06.443Z,26.64
2022-07-26T08:27:02.679Z,26.61
2022-07-26T08:28:03.777Z,26.65
2022-07-26T08:29:02.715Z,26.68
2022-07-26T08:30:02.994Z,26.65
2022-07-26T08:31:02.850Z,26.66
2022-07-26T08:32:02.887Z,26.69
2022-07-26T08:33:02.850Z,26.69
2022-07-26T08:34:02.875Z,26.76
2022-07-26T08:35:16.889Z,26.71
2022-07-26T08:36:02.934Z,26.73
2022-07-26T08:37:18.534Z,26.71
2022-07-26T08:38:03.007Z,26.68
2022-07-26T08:39:03.040Z,26.64
2022-07-26T08:40:03.068Z,26.66
2022-07-26T08:41:03.105Z,26.71
2022-07-26T08:42:03.130Z,26.71
2022-07-26T08:43:03.197Z,26.72
2022-07-26T08:45:03.238Z,26.71
2022-07-26T08:46:03.322Z,26.78
2022-07-26T08:48:18.984Z,26.69
2022-07-26T08:49:03.424Z,26.73
2022-07-26T08:50:03.770Z,26.78
2022-07-26T08:52:03.456Z,26.84
2022-07-26T08:53:03.487Z,26.84
2022-07-26T08:54:06.005Z,26.86
2022-07-26T08:55:03.561Z,26.81
2022-07-26T08:56:07.218Z,26.93
2022-07-26T08:57:03.616Z,26.83
2022-07-26T08:58:03.746Z,26.94
2022-07-26T08:59:03.679Z,26.87
2022-07-26T09:00:03.722Z,26.93
2022-07-26T09:01:03.888Z,26.86
2022-07-26T09:02:04.121Z,26.88
2022-07-26T09:03:03.807Z,26.93
2022-07-26T09:04:03.959Z,26.94
2022-07-26T09:05:03.875Z,26.96
2022-07-26T09:06:03.913Z,26.88
2022-07-26T09:07:03.937Z,26.96
2022-07-26T09:08:03.982Z,26.93
2022-07-26T09:09:04.329Z,26.96
2022-07-26T09:10:04.046Z,26.96
2022-07-26T09:11:04.068Z,26.94
2022-07-26T09:12:04.098Z,26.93
2022-07-26T09:13:04.133Z,26.98
2022-07-26T09:14:04.166Z,26.96
2022-07-26T09:15:04.213Z,26.94
2022-07-26T09:16:04.620Z,26.98
2022-07-26T09:17:04.262Z,27.02
2022-07-26T09:18:04.291Z,26.96
2022-07-26T09:19:04.329Z,27.01
2022-07-26T09:20:04.372Z,26.98
2022-07-26T09:21:04.395Z,27.05
2022-07-26T09:22:09.880Z,27.01
2022-07-26T09:23:04.709Z,26.98
2022-07-26T09:24:04.487Z,26.96
2022-07-26T09:25:04.530Z,27.05
2022-07-26T09:26:04.565Z,27.02
2022-07-26T09:27:04.598Z,27.01
2022-07-26T09:28:04.618Z,26.97
2022-07-26T09:29:04.796Z,27.06
2022-07-26T09:30:04.963Z,27.08
2022-07-26T09:31:04.797Z,27.08
2022-07-26T09:32:04.746Z,27.16
2022-07-26T09:33:04.777Z,27.18
2022-07-26T09:34:04.919Z,27.25
2022-07-26T09:35:18.815Z,27.21
2022-07-26T09:36:04.878Z,27.30
2022-07-26T09:37:09.905Z,27.33
2022-07-26T09:38:04.942Z,27.31
2022-07-26T09:39:05.009Z,27.34
2022-07-26T09:40:05.014Z,27.34
2022-07-26T09:41:05.047Z,27.31
2022-07-26T09:42:26.894Z,27.28
2022-07-26T09:43:05.105Z,27.27
2022-07-26T09:44:05.443Z,27.28
2022-07-26T09:45:05.179Z,27.18
2022-07-26T09:46:05.538Z,27.20
2022-07-26T09:47:05.253Z,27.20
2022-07-26T09:48:05.274Z,27.20
2022-07-26T09:50:09.295Z,27.24
2022-07-26T09:51:05.364Z,27.21
2022-07-26T09:52:05.398Z,27.21
2022-07-26T09:53:05.604Z,27.16
2022-07-26T09:54:05.457Z,27.18
2022-07-26T09:55:05.498Z,27.21
2022-07-26T09:56:05.529Z,27.23
2022-07-26T09:57:05.858Z,27.15
2022-07-26T09:58:05.592Z,27.13
2022-07-26T09:59:05.623Z,27.18
2022-07-26T10:00:05.701Z,27.16
2022-07-26T10:01:05.704Z,27.15
2022-07-26T10:02:05.884Z,27.20
2022-07-26T10:03:05.788Z,27.16
2022-07-26T10:04:06.207Z,27.18
2022-07-26T10:05:05.820Z,27.18
2022-07-26T10:06:05.848Z,27.16
2022-07-26T10:07:05.883Z,27.12
2022-07-26T10:08:06.118Z,27.11
2022-07-26T10:09:05.953Z,27.09
2022-07-26T10:10:05.983Z,27.06
2022-07-26T10:11:06.312Z,27.18
2022-07-26T10:12:06.044Z,27.13
2022-07-26T10:13:06.080Z,27.13
2022-07-26T10:14:06.122Z,27.21
2022-07-26T10:15:06.143Z,27.20
2022-07-26T10:16:06.267Z,27.20
2022-07-26T10:18:06.247Z,27.13
2022-07-26T10:19:06.296Z,27.18
2022-07-26T10:20:09.429Z,27.20
2022-07-26T10:21:06.343Z,27.21
2022-07-26T10:22:06.372Z,27.16
2022-07-26T10:23:06.656Z,27.16
2022-07-26T10:24:06.633Z,27.18
2022-07-26T10:25:06.468Z,27.24
2022-07-26T10:26:06.501Z,27.18
2022-07-26T10:28:11.992Z,27.30
2022-07-26T10:29:06.609Z,27.38
2022-07-26T10:30:06.932Z,27.35
2022-07-26T10:31:06.667Z,27.42
2022-07-26T10:32:06.697Z,27.42
2022-07-26T10:33:06.739Z,27.42
2022-07-26T10:35:06.793Z,27.50
2022-07-26T10:36:07.129Z,27.45
2022-07-26T10:37:06.862Z,27.48
2022-07-26T10:38:06.896Z,27.52
2022-07-26T10:39:06.950Z,27.50
2022-07-26T10:40:06.961Z,27.50
2022-07-26T10:41:06.994Z,27.50
2022-07-26T10:42:07.027Z,27.48
2022-07-26T10:44:07.382Z,27.49
2022-07-26T10:45:07.122Z,27.43
2022-07-26T10:46:07.206Z,27.46
2022-07-26T10:47:07.191Z,27.42
2022-07-26T10:48:07.236Z,27.45
2022-07-26T10:49:07.291Z,27.39
2022-07-26T10:50:07.585Z,27.43
2022-07-26T10:51:07.336Z,27.46
2022-07-26T10:52:07.351Z,27.46
2022-07-26T10:53:07.387Z,27.34
2022-07-26T10:54:07.871Z,27.42
2022-07-26T10:55:07.460Z,27.35
2022-07-26T10:56:07.489Z,27.43
2022-07-26T10:57:07.783Z,27.43
2022-07-26T10:58:07.554Z,27.38
2022-07-26T10:59:07.583Z,27.43
2022-07-26T11:00:07.618Z,27.38
2022-07-26T11:01:07.749Z,27.38
2022-07-26T11:02:07.722Z,27.39
2022-07-26T11:03:07.871Z,27.40
2022-07-26T11:04:08.115Z,27.40
2022-07-26T11:05:07.967Z,27.33
2022-07-26T11:06:07.810Z,27.35
2022-07-26T11:07:07.847Z,27.42
2022-07-26T11:08:07.882Z,27.38
2022-07-26T11:09:07.928Z,27.42
2022-07-26T11:10:08.196Z,27.43
2022-07-26T11:11:08.005Z,27.39
2022-07-26T11:12:08.005Z,27.46
2022-07-26T11:13:08.040Z,27.42
2022-07-26T11:14:08.608Z,27.39
2022-07-26T11:15:08.419Z,27.38
2022-07-26T11:16:08.219Z,27.49
2022-07-26T11:17:08.472Z,27.48
2022-07-26T11:18:08.207Z,27.48
2022-07-26T11:19:08.242Z,27.48
2022-07-26T11:21:08.306Z,27.53
2022-07-26T11:22:08.338Z,27.52
2022-07-26T11:23:08.400Z,27.58
2022-07-26T11:24:09.087Z,27.53
2022-07-26T11:25:08.441Z,27.55
2022-07-26T11:26:08.469Z,27.58
2022-07-26T11:27:08.501Z,27.55
2022-07-26T11:28:08.535Z,27.52
2022-07-26T11:29:08.582Z,27.62
2022-07-26T11:30:08.608Z,27.58
2022-07-26T11:31:08.679Z,27.53
2022-07-26T11:32:14.773Z,27.48
2022-07-26T11:33:08.704Z,27.61
2022-07-26T11:34:09.198Z,27.50
2022-07-26T11:35:08.764Z,27.55
2022-07-26T11:36:08.809Z,27.52
2022-07-26T11:37:09.697Z,27.61
2022-07-26T11:38:12.087Z,27.53
2022-07-26T11:39:08.972Z,27.53
2022-07-26T11:40:08.930Z,27.59
2022-07-26T11:41:09.065Z,27.65
2022-07-26T11:42:09.011Z,27.62
2022-07-26T11:43:09.294Z,27.50
2022-07-26T11:44:09.283Z,27.59
2022-07-26T11:45:09.145Z,27.53
2022-07-26T11:46:09.189Z,27.61
2022-07-26T11:47:09.160Z,27.55
2022-07-26T11:48:09.197Z,27.61
2022-07-26T11:49:09.637Z,27.65
2022-07-26T11:50:14.340Z,27.62
2022-07-26T11:52:09.328Z,27.66
2022-07-26T11:53:09.409Z,27.63
2022-07-26T11:54:09.711Z,27.72
2022-07-26T11:55:09.438Z,27.69
2022-07-26T11:56:09.718Z,27.68
2022-07-26T11:57:09.488Z,27.63
2022-07-26T11:58:09.526Z,27.72
2022-07-26T11:59:09.626Z,27.71
2022-07-26T12:00:09.594Z,27.76
2022-07-26T12:01:09.623Z,27.77
2022-07-26T12:03:09.791Z,27.80
2022-07-26T12:04:10.395Z,27.78
2022-07-26T12:05:09.903Z,27.87
2022-07-26T12:06:09.800Z,27.87
2022-07-26T12:07:09.823Z,27.83
2022-07-26T12:08:09.856Z,27.81
2022-07-26T12:09:09.892Z,27.88
2022-07-26T12:10:09.922Z,27.88
2022-07-26T12:11:10.207Z,27.87
2022-07-26T12:12:09.988Z,27.78
2022-07-26T12:13:10.032Z,27.84
2022-07-26T12:14:12.592Z,27.84
2022-07-26T12:15:10.094Z,27.83
2022-07-26T12:16:10.253Z,27.86
2022-07-26T12:17:10.168Z,27.77
2022-07-26T12:18:10.489Z,27.81
2022-07-26T12:19:10.248Z,27.83
2022-07-26T12:20:10.255Z,27.80
2022-07-26T12:21:10.294Z,27.83
2022-07-26T12:22:12.198Z,27.84
2022-07-26T12:23:10.364Z,27.86
2022-07-26T12:24:10.887Z,27.80
2022-07-26T12:25:10.725Z,27.74
2022-07-26T12:26:10.462Z,27.76
2022-07-26T12:27:10.504Z,27.78
2022-07-26T12:28:10.572Z,27.77
2022-07-26T12:29:10.557Z,27.76
2022-07-26T12:30:10.689Z,27.80
2022-07-26T12:31:10.777Z,27.83
2022-07-26T12:32:12.816Z,27.86
2022-07-26T12:33:10.687Z,27.78
2022-07-26T12:34:11.185Z,27.91
2022-07-26T12:36:10.790Z,27.95
2022-07-26T12:37:10.821Z,27.86
2022-07-26T12:38:10.854Z,27.98
2022-07-26T12:39:11.189Z,27.88
2022-07-26T12:40:10.920Z,27.90
2022-07-26T12:41:13.910Z,27.86
2022-07-26T12:42:10.988Z,27.90
2022-07-26T12:43:11.019Z,27.95
2022-07-26T12:44:11.778Z,27.87
2022-07-26T12:45:11.089Z,27.87
2022-07-26T12:46:11.997Z,27.88
2022-07-26T12:47:11.181Z,27.96
2022-07-26T12:48:11.192Z,27.98
2022-07-26T12:49:11.331Z,27.98
2022-07-26T12:50:11.253Z,28.03
2022-07-26T12:51:11.376Z,28.09
2022-07-26T12:52:11.320Z,28.14
2022-07-26T12:53:11.406Z,28.20
2022-07-26T12:54:11.741Z,28.23
2022-07-26T12:55:11.421Z,28.27
2022-07-26T12:56:11.458Z,28.14
2022-07-26T12:57:11.494Z,28.14
2022-07-26T12:58:11.527Z,28.20
2022-07-26T12:59:11.855Z,28.23
2022-07-26T13:00:11.600Z,28.15
2022-07-26T13:01:11.697Z,28.09
2022-07-26T13:02:11.655Z,28.17
2022-07-26T13:03:11.688Z,28.21
2022-07-26T13:04:12.448Z,28.18
2022-07-26T13:05:11.869Z,28.21
2022-07-26T13:06:12.036Z,28.21
2022-07-26T13:07:11.823Z,28.23
2022-07-26T13:08:11.872Z,28.24
2022-07-26T13:09:11.904Z,28.28
2022-07-26T13:11:11.959Z,28.32
2022-07-26T13:13:12.026Z,28.25
2022-07-26T13:14:12.833Z,28.36
2022-07-26T13:15:12.127Z,28.36
2022-07-26T13:18:12.239Z,28.23
2022-07-26T13:19:12.238Z,28.24
2022-07-26T13:20:12.264Z,28.23
2022-07-26T13:21:12.299Z,28.24
2022-07-26T13:22:12.324Z,28.23
2022-07-26T13:23:13.948Z,28.24
2022-07-26T13:24:12.724Z,28.23
2022-07-26T13:25:12.424Z,28.24
2022-07-26T13:26:12.457Z,28.18
2022-07-26T13:27:12.792Z,28.39
2022-07-26T13:29:12.564Z,28.33
2022-07-26T13:30:12.595Z,28.27
2022-07-26T13:31:12.739Z,28.32
2022-07-26T13:32:12.671Z,28.40
2022-07-26T13:33:12.998Z,28.43
2022-07-26T13:34:13.135Z,28.48
2022-07-26T13:35:12.765Z,28.55
2022-07-26T13:36:12.792Z,28.50
2022-07-26T13:37:12.829Z,28.60
2022-07-26T13:38:12.862Z,28.58
2022-07-26T13:39:13.150Z,28.69
2022-07-26T13:41:12.966Z,28.77
2022-07-26T13:42:13.009Z,28.87
2022-07-26T13:43:13.036Z,28.80
2022-07-26T13:44:13.570Z,28.77
2022-07-26T13:45:13.397Z,28.79